sensor_id;sensor_type;location;lat;lon;timestamp;P1;durP1;ratioP1;P2;durP2;ratioP2
42118;SDS011;27783;42.782;23.274;2023-02-22T00:01:10;17.95;;;11.10;;
42118;SDS011;27783;42.782;23.274;2023-02-22T00:03:49;10.48;;;8.88;;
42118;SDS011;27783;42.782;23.274;2023-02-22T00:06:19;9.50;;;7.53;;
42118;SDS011;27783;42.782;23.274;2023-02-22T00:08:50;10.38;;;6.95;;
42118;SDS011;27783;42.782;23.274;2023-02-22T00:11:16;9.20;;;6.90;;
42118;SDS011;27783;42.782;23.274;2023-02-22T00:13:43;11.55;;;6.38;;
42118;SDS011;27783;42.782;23.274;2023-02-22T00:16:12;10.80;;;6.30;;
42118;SDS011;27783;42.782;23.274;2023-02-22T00:18:40;10.60;;;6.30;;
42118;SDS011;27783;42.782;23.274;2023-02-22T00:21:05;9.63;;;6.15;;
42118;SDS011;27783;42.782;23.274;2023-02-22T00:23:34;10.02;;;6.60;;
42118;SDS011;27783;42.782;23.274;2023-02-22T00:26:05;12.25;;;7.53;;
42118;SDS011;27783;42.782;23.274;2023-02-22T00:28:49;12.45;;;7.78;;
42118;SDS011;27783;42.782;23.274;2023-02-22T00:31:16;11.23;;;7.22;;
42118;SDS011;27783;42.782;23.274;2023-02-22T00:33:44;12.05;;;8.32;;
42118;SDS011;27783;42.782;23.274;2023-02-22T00:36:10;12.90;;;8.18;;
42118;SDS011;27783;42.782;23.274;2023-02-22T00:38:40;20.08;;;15.93;;
42118;SDS011;27783;42.782;23.274;2023-02-22T00:41:06;27.90;;;22.38;;
42118;SDS011;27783;42.782;23.274;2023-02-22T00:43:33;22.77;;;16.95;;
42118;SDS011;27783;42.782;23.274;2023-02-22T00:46:01;33.15;;;25.10;;
42118;SDS011;27783;42.782;23.274;2023-02-22T00:50:53;18.50;;;13.60;;
42118;SDS011;27783;42.782;23.274;2023-02-22T00:53:19;22.27;;;16.23;;
42118;SDS011;27783;42.782;23.274;2023-02-22T00:55:45;16.95;;;12.38;;
42118;SDS011;27783;42.782;23.274;2023-02-22T00:58:11;14.88;;;11.30;;
42118;SDS011;27783;42.782;23.274;2023-02-22T01:00:38;22.73;;;10.38;;
42118;SDS011;27783;42.782;23.274;2023-02-22T01:03:06;14.32;;;9.60;;
42118;SDS011;27783;42.782;23.274;2023-02-22T01:05:32;13.70;;;9.63;;
42118;SDS011;27783;42.782;23.274;2023-02-22T01:07:59;16.10;;;11.82;;
42118;SDS011;27783;42.782;23.274;2023-02-22T01:10:27;16.73;;;11.38;;
42118;SDS011;27783;42.782;23.274;2023-02-22T01:12:54;19.20;;;10.70;;
42118;SDS011;27783;42.782;23.274;2023-02-22T01:15:22;17.33;;;11.15;;
42118;SDS011;27783;42.782;23.274;2023-02-22T01:17:49;14.40;;;11.32;;
42118;SDS011;27783;42.782;23.274;2023-02-22T01:20:17;15.18;;;11.45;;
42118;SDS011;27783;42.782;23.274;2023-02-22T01:22:44;21.98;;;14.25;;
42118;SDS011;27783;42.782;23.274;2023-02-22T01:25:15;18.58;;;12.02;;
42118;SDS011;27783;42.782;23.274;2023-02-22T01:27:43;27.88;;;17.13;;
42118;SDS011;27783;42.782;23.274;2023-02-22T01:30:09;54.08;;;36.97;;
42118;SDS011;27783;42.782;23.274;2023-02-22T01:35:12;58.63;;;40.47;;
42118;SDS011;27783;42.782;23.274;2023-02-22T01:37:40;35.72;;;25.15;;
42118;SDS011;27783;42.782;23.274;2023-02-22T01:40:07;22.42;;;15.05;;
42118;SDS011;27783;42.782;23.274;2023-02-22T01:42:35;27.67;;;16.90;;
42118;SDS011;27783;42.782;23.274;2023-02-22T01:48:03;62.03;;;42.03;;
42118;SDS011;27783;42.782;23.274;2023-02-22T01:50:38;30.60;;;18.20;;
42118;SDS011;27783;42.782;23.274;2023-02-22T01:53:08;71.45;;;36.10;;
42118;SDS011;27783;42.782;23.274;2023-02-22T01:55:37;62.33;;;33.60;;
42118;SDS011;27783;42.782;23.274;2023-02-22T01:58:03;57.58;;;34.00;;
42118;SDS011;27783;42.782;23.274;2023-02-22T02:00:30;60.22;;;34.88;;
42118;SDS011;27783;42.782;23.274;2023-02-22T02:03:10;29.20;;;16.88;;
42118;SDS011;27783;42.782;23.274;2023-02-22T02:05:41;36.03;;;22.50;;
42118;SDS011;27783;42.782;23.274;2023-02-22T02:08:16;32.30;;;19.95;;
42118;SDS011;27783;42.782;23.274;2023-02-22T02:10:52;25.13;;;17.48;;
42118;SDS011;27783;42.782;23.274;2023-02-22T02:15:47;30.45;;;17.20;;
42118;SDS011;27783;42.782;23.274;2023-02-22T02:18:14;27.10;;;15.68;;
42118;SDS011;27783;42.782;23.274;2023-02-22T02:26:56;15.50;;;10.32;;
42118;SDS011;27783;42.782;23.274;2023-02-22T02:34:56;15.95;;;8.45;;
42118;SDS011;27783;42.782;23.274;2023-02-22T02:40:29;13.68;;;9.00;;
42118;SDS011;27783;42.782;23.274;2023-02-22T02:43:03;14.63;;;9.40;;
42118;SDS011;27783;42.782;23.274;2023-02-22T02:45:45;12.88;;;7.53;;
42118;SDS011;27783;42.782;23.274;2023-02-22T02:48:18;13.60;;;9.48;;
42118;SDS011;27783;42.782;23.274;2023-02-22T02:50:49;12.75;;;8.13;;
42118;SDS011;27783;42.782;23.274;2023-02-22T02:55:46;14.07;;;7.72;;
42118;SDS011;27783;42.782;23.274;2023-02-22T02:58:19;12.88;;;8.10;;
42118;SDS011;27783;42.782;23.274;2023-02-22T03:00:49;11.02;;;7.15;;
42118;SDS011;27783;42.782;23.274;2023-02-22T03:09:06;11.15;;;7.07;;
42118;SDS011;27783;42.782;23.274;2023-02-22T03:11:52;9.95;;;6.75;;
42118;SDS011;27783;42.782;23.274;2023-02-22T03:14:47;19.23;;;8.80;;
42118;SDS011;27783;42.782;23.274;2023-02-22T03:20:27;9.43;;;7.25;;
42118;SDS011;27783;42.782;23.274;2023-02-22T03:23:13;12.88;;;6.57;;
42118;SDS011;27783;42.782;23.274;2023-02-22T03:26:20;13.05;;;8.10;;
42118;SDS011;27783;42.782;23.274;2023-02-22T03:28:50;13.98;;;8.52;;
42118;SDS011;27783;42.782;23.274;2023-02-22T03:31:26;14.30;;;9.35;;
42118;SDS011;27783;42.782;23.274;2023-02-22T03:34:14;10.98;;;7.82;;
42118;SDS011;27783;42.782;23.274;2023-02-22T03:36:46;15.70;;;9.73;;
42118;SDS011;27783;42.782;23.274;2023-02-22T03:39:17;15.85;;;9.38;;
42118;SDS011;27783;42.782;23.274;2023-02-22T03:41:47;13.13;;;8.98;;
42118;SDS011;27783;42.782;23.274;2023-02-22T03:44:17;13.85;;;9.88;;
42118;SDS011;27783;42.782;23.274;2023-02-22T03:46:47;17.05;;;10.65;;
42118;SDS011;27783;42.782;23.274;2023-02-22T03:51:50;15.38;;;10.88;;
42118;SDS011;27783;42.782;23.274;2023-02-22T03:54:15;16.13;;;10.77;;
42118;SDS011;27783;42.782;23.274;2023-02-22T03:56:55;16.80;;;10.13;;
42118;SDS011;27783;42.782;23.274;2023-02-22T03:59:28;26.45;;;14.15;;
42118;SDS011;27783;42.782;23.274;2023-02-22T04:01:54;30.67;;;19.00;;
42118;SDS011;27783;42.782;23.274;2023-02-22T04:04:20;26.77;;;15.60;;
42118;SDS011;27783;42.782;23.274;2023-02-22T04:06:47;22.58;;;12.02;;
42118;SDS011;27783;42.782;23.274;2023-02-22T04:09:14;20.42;;;13.07;;
42118;SDS011;27783;42.782;23.274;2023-02-22T04:11:42;21.35;;;13.82;;
42118;SDS011;27783;42.782;23.274;2023-02-22T04:14:08;17.88;;;11.13;;
42118;SDS011;27783;42.782;23.274;2023-02-22T04:16:33;14.68;;;8.98;;
42118;SDS011;27783;42.782;23.274;2023-02-22T04:18:59;18.90;;;12.07;;
42118;SDS011;27783;42.782;23.274;2023-02-22T04:21:24;27.20;;;15.85;;
42118;SDS011;27783;42.782;23.274;2023-02-22T04:26:17;27.00;;;17.10;;
42118;SDS011;27783;42.782;23.274;2023-02-22T04:28:43;15.48;;;12.32;;
42118;SDS011;27783;42.782;23.274;2023-02-22T04:31:08;10.88;;;8.30;;
42118;SDS011;27783;42.782;23.274;2023-02-22T04:33:34;9.77;;;7.63;;
42118;SDS011;27783;42.782;23.274;2023-02-22T04:36:01;10.27;;;7.28;;
42118;SDS011;27783;42.782;23.274;2023-02-22T04:40:54;9.73;;;6.28;;
42118;SDS011;27783;42.782;23.274;2023-02-22T04:43:22;13.55;;;7.90;;
42118;SDS011;27783;42.782;23.274;2023-02-22T04:45:48;14.63;;;8.63;;
42118;SDS011;27783;42.782;23.274;2023-02-22T04:48:14;468.63;;;309.02;;
42118;SDS011;27783;42.782;23.274;2023-02-22T04:50:40;384.92;;;260.92;;
42118;SDS011;27783;42.782;23.274;2023-02-22T04:53:06;213.05;;;124.18;;
42118;SDS011;27783;42.782;23.274;2023-02-22T04:55:32;28.77;;;13.45;;
42118;SDS011;27783;42.782;23.274;2023-02-22T04:57:59;21.10;;;12.63;;
42118;SDS011;27783;42.782;23.274;2023-02-22T05:00:25;32.80;;;12.50;;
42118;SDS011;27783;42.782;23.274;2023-02-22T05:02:53;21.20;;;11.23;;
42118;SDS011;27783;42.782;23.274;2023-02-22T05:05:19;26.25;;;12.77;;
42118;SDS011;27783;42.782;23.274;2023-02-22T05:07:46;23.58;;;12.02;;
42118;SDS011;27783;42.782;23.274;2023-02-22T05:10:12;31.20;;;13.48;;
42118;SDS011;27783;42.782;23.274;2023-02-22T05:12:37;29.25;;;14.75;;
42118;SDS011;27783;42.782;23.274;2023-02-22T05:15:05;30.92;;;14.32;;
42118;SDS011;27783;42.782;23.274;2023-02-22T05:17:31;28.33;;;14.70;;
42118;SDS011;27783;42.782;23.274;2023-02-22T05:19:56;33.15;;;14.18;;
42118;SDS011;27783;42.782;23.274;2023-02-22T05:22:22;19.70;;;9.82;;
42118;SDS011;27783;42.782;23.274;2023-02-22T05:24:48;22.13;;;11.73;;
42118;SDS011;27783;42.782;23.274;2023-02-22T05:27:16;34.55;;;12.95;;
42118;SDS011;27783;42.782;23.274;2023-02-22T05:29:42;18.70;;;9.82;;
42118;SDS011;27783;42.782;23.274;2023-02-22T05:32:07;26.33;;;12.05;;
42118;SDS011;27783;42.782;23.274;2023-02-22T05:34:33;22.40;;;10.32;;
42118;SDS011;27783;42.782;23.274;2023-02-22T05:36:58;18.08;;;11.10;;
42118;SDS011;27783;42.782;23.274;2023-02-22T05:39:23;28.58;;;11.25;;
42118;SDS011;27783;42.782;23.274;2023-02-22T05:41:49;47.22;;;18.23;;
42118;SDS011;27783;42.782;23.274;2023-02-22T05:44:14;34.15;;;15.38;;
42118;SDS011;27783;42.782;23.274;2023-02-22T05:46:39;28.92;;;13.57;;
42118;SDS011;27783;42.782;23.274;2023-02-22T05:49:05;28.55;;;13.98;;
42118;SDS011;27783;42.782;23.274;2023-02-22T05:51:30;36.28;;;14.32;;
42118;SDS011;27783;42.782;23.274;2023-02-22T05:53:57;22.17;;;10.63;;
42118;SDS011;27783;42.782;23.274;2023-02-22T05:56:23;16.70;;;8.90;;
42118;SDS011;27783;42.782;23.274;2023-02-22T06:01:16;34.03;;;11.93;;
42118;SDS011;27783;42.782;23.274;2023-02-22T06:03:43;33.90;;;12.75;;
42118;SDS011;27783;42.782;23.274;2023-02-22T06:06:11;30.67;;;12.45;;
42118;SDS011;27783;42.782;23.274;2023-02-22T06:08:36;36.47;;;18.42;;
42118;SDS011;27783;42.782;23.274;2023-02-22T06:11:01;38.30;;;16.48;;
42118;SDS011;27783;42.782;23.274;2023-02-22T06:13:27;42.67;;;20.23;;
42118;SDS011;27783;42.782;23.274;2023-02-22T06:15:52;35.45;;;19.13;;
42118;SDS011;27783;42.782;23.274;2023-02-22T06:18:17;43.67;;;20.73;;
42118;SDS011;27783;42.782;23.274;2023-02-22T06:20:43;40.60;;;17.17;;
42118;SDS011;27783;42.782;23.274;2023-02-22T06:23:08;27.63;;;17.30;;
42118;SDS011;27783;42.782;23.274;2023-02-22T06:25:34;38.72;;;19.55;;
42118;SDS011;27783;42.782;23.274;2023-02-22T06:28:00;88.32;;;47.63;;
42118;SDS011;27783;42.782;23.274;2023-02-22T06:30:26;90.22;;;58.17;;
42118;SDS011;27783;42.782;23.274;2023-02-22T06:32:52;49.88;;;27.38;;
42118;SDS011;27783;42.782;23.274;2023-02-22T06:35:18;47.25;;;22.15;;
42118;SDS011;27783;42.782;23.274;2023-02-22T06:37:43;47.05;;;22.23;;
42118;SDS011;27783;42.782;23.274;2023-02-22T06:40:09;43.50;;;23.10;;
42118;SDS011;27783;42.782;23.274;2023-02-22T06:42:36;44.47;;;22.08;;
42118;SDS011;27783;42.782;23.274;2023-02-22T06:45:01;42.78;;;22.45;;
42118;SDS011;27783;42.782;23.274;2023-02-22T06:47:27;38.10;;;23.05;;
42118;SDS011;27783;42.782;23.274;2023-02-22T06:49:54;33.97;;;20.52;;
42118;SDS011;27783;42.782;23.274;2023-02-22T06:52:20;34.85;;;19.38;;
42118;SDS011;27783;42.782;23.274;2023-02-22T06:54:46;36.15;;;21.70;;
42118;SDS011;27783;42.782;23.274;2023-02-22T06:57:12;47.70;;;28.25;;
42118;SDS011;27783;42.782;23.274;2023-02-22T06:59:37;49.97;;;28.05;;
42118;SDS011;27783;42.782;23.274;2023-02-22T07:02:03;38.33;;;18.52;;
42118;SDS011;27783;42.782;23.274;2023-02-22T07:04:28;29.83;;;19.55;;
42118;SDS011;27783;42.782;23.274;2023-02-22T07:06:54;24.92;;;16.65;;
42118;SDS011;27783;42.782;23.274;2023-02-22T07:09:20;25.15;;;15.85;;
42118;SDS011;27783;42.782;23.274;2023-02-22T07:11:45;23.13;;;17.17;;
42118;SDS011;27783;42.782;23.274;2023-02-22T07:14:11;25.27;;;16.50;;
42118;SDS011;27783;42.782;23.274;2023-02-22T07:16:36;33.22;;;18.17;;
42118;SDS011;27783;42.782;23.274;2023-02-22T07:19:01;30.65;;;18.25;;
42118;SDS011;27783;42.782;23.274;2023-02-22T07:21:27;22.45;;;15.20;;
42118;SDS011;27783;42.782;23.274;2023-02-22T07:23:53;25.08;;;15.55;;
42118;SDS011;27783;42.782;23.274;2023-02-22T07:26:20;35.03;;;17.47;;
42118;SDS011;27783;42.782;23.274;2023-02-22T07:28:46;29.88;;;14.98;;
42118;SDS011;27783;42.782;23.274;2023-02-22T07:31:12;20.05;;;14.35;;
42118;SDS011;27783;42.782;23.274;2023-02-22T07:33:38;21.33;;;14.90;;
42118;SDS011;27783;42.782;23.274;2023-02-22T07:36:03;26.55;;;16.40;;
42118;SDS011;27783;42.782;23.274;2023-02-22T07:38:30;25.88;;;17.65;;
42118;SDS011;27783;42.782;23.274;2023-02-22T07:40:57;26.88;;;16.60;;
42118;SDS011;27783;42.782;23.274;2023-02-22T07:43:25;20.70;;;15.45;;
42118;SDS011;27783;42.782;23.274;2023-02-22T07:45:56;20.63;;;15.32;;
42118;SDS011;27783;42.782;23.274;2023-02-22T07:48:25;23.38;;;15.52;;
42118;SDS011;27783;42.782;23.274;2023-02-22T07:50:52;15.25;;;12.48;;
42118;SDS011;27783;42.782;23.274;2023-02-22T07:53:19;16.27;;;12.60;;
42118;SDS011;27783;42.782;23.274;2023-02-22T07:55:48;14.48;;;11.35;;
42118;SDS011;27783;42.782;23.274;2023-02-22T07:58:15;16.33;;;12.38;;
42118;SDS011;27783;42.782;23.274;2023-02-22T08:00:43;15.10;;;11.73;;
42118;SDS011;27783;42.782;23.274;2023-02-22T08:03:09;13.65;;;11.20;;
42118;SDS011;27783;42.782;23.274;2023-02-22T08:05:37;16.15;;;11.45;;
42118;SDS011;27783;42.782;23.274;2023-02-22T08:08:04;13.80;;;11.67;;
42118;SDS011;27783;42.782;23.274;2023-02-22T08:10:31;14.77;;;11.30;;
42118;SDS011;27783;42.782;23.274;2023-02-22T08:12:57;15.10;;;10.57;;
42118;SDS011;27783;42.782;23.274;2023-02-22T08:17:53;11.85;;;10.63;;
42118;SDS011;27783;42.782;23.274;2023-02-22T08:20:19;11.48;;;10.27;;
42118;SDS011;27783;42.782;23.274;2023-02-22T08:22:45;13.15;;;9.77;;
42118;SDS011;27783;42.782;23.274;2023-02-22T08:25:11;10.77;;;9.57;;
42118;SDS011;27783;42.782;23.274;2023-02-22T08:27:39;12.57;;;11.27;;
42118;SDS011;27783;42.782;23.274;2023-02-22T08:30:05;12.75;;;9.73;;
42118;SDS011;27783;42.782;23.274;2023-02-22T08:32:31;11.63;;;10.52;;
42118;SDS011;27783;42.782;23.274;2023-02-22T08:34:57;12.23;;;10.57;;
42118;SDS011;27783;42.782;23.274;2023-02-22T08:37:22;12.80;;;10.02;;
42118;SDS011;27783;42.782;23.274;2023-02-22T08:39:48;12.85;;;9.90;;
42118;SDS011;27783;42.782;23.274;2023-02-22T08:42:13;10.40;;;9.25;;
42118;SDS011;27783;42.782;23.274;2023-02-22T08:44:39;11.00;;;9.30;;
42118;SDS011;27783;42.782;23.274;2023-02-22T08:47:05;12.05;;;9.98;;
42118;SDS011;27783;42.782;23.274;2023-02-22T08:49:31;11.00;;;9.90;;
42118;SDS011;27783;42.782;23.274;2023-02-22T08:51:57;12.02;;;9.77;;
42118;SDS011;27783;42.782;23.274;2023-02-22T08:54:23;11.23;;;9.55;;
42118;SDS011;27783;42.782;23.274;2023-02-22T08:56:48;13.68;;;10.07;;
42118;SDS011;27783;42.782;23.274;2023-02-22T08:59:14;13.35;;;10.18;;
42118;SDS011;27783;42.782;23.274;2023-02-22T09:01:40;14.15;;;10.63;;
42118;SDS011;27783;42.782;23.274;2023-02-22T09:04:05;13.32;;;11.75;;
42118;SDS011;27783;42.782;23.274;2023-02-22T09:06:31;12.35;;;10.10;;
42118;SDS011;27783;42.782;23.274;2023-02-22T09:08:56;13.02;;;10.60;;
42118;SDS011;27783;42.782;23.274;2023-02-22T09:11:22;10.90;;;9.80;;
42118;SDS011;27783;42.782;23.274;2023-02-22T09:13:47;12.70;;;10.48;;
42118;SDS011;27783;42.782;23.274;2023-02-22T09:16:13;10.45;;;9.30;;
42118;SDS011;27783;42.782;23.274;2023-02-22T09:18:38;10.48;;;9.32;;
42118;SDS011;27783;42.782;23.274;2023-02-22T09:21:04;12.23;;;9.75;;
42118;SDS011;27783;42.782;23.274;2023-02-22T09:23:29;10.30;;;9.02;;
42118;SDS011;27783;42.782;23.274;2023-02-22T09:25:55;11.40;;;8.27;;
42118;SDS011;27783;42.782;23.274;2023-02-22T09:28:21;7.93;;;7.13;;
42118;SDS011;27783;42.782;23.274;2023-02-22T09:30:46;9.02;;;7.80;;
42118;SDS011;27783;42.782;23.274;2023-02-22T09:33:15;8.57;;;6.88;;
42118;SDS011;27783;42.782;23.274;2023-02-22T09:35:43;6.95;;;6.35;;
42118;SDS011;27783;42.782;23.274;2023-02-22T09:38:11;6.57;;;5.50;;
42118;SDS011;27783;42.782;23.274;2023-02-22T09:40:44;6.55;;;5.40;;
42118;SDS011;27783;42.782;23.274;2023-02-22T09:48:29;6.13;;;3.55;;
42118;SDS011;27783;42.782;23.274;2023-02-22T09:50:58;7.20;;;3.58;;
42118;SDS011;27783;42.782;23.274;2023-02-22T09:56:02;6.30;;;4.20;;
42118;SDS011;27783;42.782;23.274;2023-02-22T09:58:35;5.60;;;4.10;;
42118;SDS011;27783;42.782;23.274;2023-02-22T10:01:25;6.32;;;4.32;;
42118;SDS011;27783;42.782;23.274;2023-02-22T10:07:34;6.07;;;3.47;;
42118;SDS011;27783;42.782;23.274;2023-02-22T10:09:36;7.68;;;3.53;;
42118;SDS011;27783;42.782;23.274;2023-02-22T10:12:09;6.78;;;3.28;;
42118;SDS011;27783;42.782;23.274;2023-02-22T10:14:49;3.92;;;3.50;;
42118;SDS011;27783;42.782;23.274;2023-02-22T10:25:25;6.05;;;2.30;;
42118;SDS011;27783;42.782;23.274;2023-02-22T10:30:42;5.13;;;2.70;;
42118;SDS011;27783;42.782;23.274;2023-02-22T10:33:28;4.07;;;1.95;;
42118;SDS011;27783;42.782;23.274;2023-02-22T10:35:59;3.90;;;2.53;;
42118;SDS011;27783;42.782;23.274;2023-02-22T10:38:26;2.35;;;2.15;;
42118;SDS011;27783;42.782;23.274;2023-02-22T10:40:57;3.20;;;2.55;;
42118;SDS011;27783;42.782;23.274;2023-02-22T10:43:27;2.65;;;2.00;;
42118;SDS011;27783;42.782;23.274;2023-02-22T10:45:57;5.55;;;3.13;;
42118;SDS011;27783;42.782;23.274;2023-02-22T10:48:27;4.20;;;3.08;;
42118;SDS011;27783;42.782;23.274;2023-02-22T10:50:59;6.82;;;2.88;;
42118;SDS011;27783;42.782;23.274;2023-02-22T10:53:26;3.28;;;2.63;;
42118;SDS011;27783;42.782;23.274;2023-02-22T10:56:12;4.05;;;2.60;;
42118;SDS011;27783;42.782;23.274;2023-02-22T10:58:57;4.68;;;2.10;;
42118;SDS011;27783;42.782;23.274;2023-02-22T11:04:11;3.22;;;2.58;;
42118;SDS011;27783;42.782;23.274;2023-02-22T11:06:40;4.63;;;3.42;;
42118;SDS011;27783;42.782;23.274;2023-02-22T11:09:15;5.68;;;2.25;;
42118;SDS011;27783;42.782;23.274;2023-02-22T11:11:47;3.13;;;1.95;;
42118;SDS011;27783;42.782;23.274;2023-02-22T11:14:32;3.28;;;2.10;;
42118;SDS011;27783;42.782;23.274;2023-02-22T11:16:58;4.32;;;2.38;;
42118;SDS011;27783;42.782;23.274;2023-02-22T11:19:28;5.47;;;3.30;;
42118;SDS011;27783;42.782;23.274;2023-02-22T11:24:46;4.28;;;2.80;;
42118;SDS011;27783;42.782;23.274;2023-02-22T11:30:25;3.72;;;2.83;;
42118;SDS011;27783;42.782;23.274;2023-02-22T11:32:58;3.65;;;2.47;;
42118;SDS011;27783;42.782;23.274;2023-02-22T11:37:52;3.00;;;2.30;;
42118;SDS011;27783;42.782;23.274;2023-02-22T11:40:21;7.53;;;2.45;;
42118;SDS011;27783;42.782;23.274;2023-02-22T11:42:49;5.53;;;2.20;;
42118;SDS011;27783;42.782;23.274;2023-02-22T11:45:35;4.20;;;2.30;;
42118;SDS011;27783;42.782;23.274;2023-02-22T11:48:00;3.47;;;2.05;;
42118;SDS011;27783;42.782;23.274;2023-02-22T12:01:57;2.80;;;1.80;;
42118;SDS011;27783;42.782;23.274;2023-02-22T12:08:23;3.67;;;1.85;;
42118;SDS011;27783;42.782;23.274;2023-02-22T12:13:27;3.95;;;1.90;;
42118;SDS011;27783;42.782;23.274;2023-02-22T12:16:33;2.53;;;1.92;;
42118;SDS011;27783;42.782;23.274;2023-02-22T12:22:16;4.43;;;1.95;;
42118;SDS011;27783;42.782;23.274;2023-02-22T12:24:47;5.03;;;2.20;;
42118;SDS011;27783;42.782;23.274;2023-02-22T12:27:18;3.97;;;2.13;;
42118;SDS011;27783;42.782;23.274;2023-02-22T12:29:53;3.05;;;1.90;;
42118;SDS011;27783;42.782;23.274;2023-02-22T12:46:16;3.15;;;1.67;;
42118;SDS011;27783;42.782;23.274;2023-02-22T12:54:22;2.83;;;1.60;;
42118;SDS011;27783;42.782;23.274;2023-02-22T12:59:36;2.58;;;1.58;;
42118;SDS011;27783;42.782;23.274;2023-02-22T13:04:42;1.80;;;1.65;;
42118;SDS011;27783;42.782;23.274;2023-02-22T13:12:47;1.85;;;1.35;;
42118;SDS011;27783;42.782;23.274;2023-02-22T13:18:45;4.65;;;1.60;;
42118;SDS011;27783;42.782;23.274;2023-02-22T13:21:50;3.25;;;1.73;;
42118;SDS011;27783;42.782;23.274;2023-02-22T13:24:30;4.03;;;1.73;;
42118;SDS011;27783;42.782;23.274;2023-02-22T13:27:03;3.17;;;1.60;;
42118;SDS011;27783;42.782;23.274;2023-02-22T13:29:35;5.88;;;1.35;;
42118;SDS011;27783;42.782;23.274;2023-02-22T13:32:13;4.40;;;1.70;;
42118;SDS011;27783;42.782;23.274;2023-02-22T13:37:48;2.40;;;1.77;;
42118;SDS011;27783;42.782;23.274;2023-02-22T13:46:24;2.15;;;1.38;;
42118;SDS011;27783;42.782;23.274;2023-02-22T13:49:02;4.25;;;1.73;;
42118;SDS011;27783;42.782;23.274;2023-02-22T13:51:44;2.63;;;1.15;;
42118;SDS011;27783;42.782;23.274;2023-02-22T13:59:48;2.78;;;1.40;;
42118;SDS011;27783;42.782;23.274;2023-02-22T14:11:06;1.88;;;1.67;;
42118;SDS011;27783;42.782;23.274;2023-02-22T14:16:26;2.50;;;1.77;;
42118;SDS011;27783;42.782;23.274;2023-02-22T14:21:54;2.65;;;1.63;;
42118;SDS011;27783;42.782;23.274;2023-02-22T14:24:43;4.25;;;3.85;;
42118;SDS011;27783;42.782;23.274;2023-02-22T14:27:10;5.55;;;3.20;;
42118;SDS011;27783;42.782;23.274;2023-02-22T14:29:47;4.95;;;2.30;;
42118;SDS011;27783;42.782;23.274;2023-02-22T14:32:17;2.63;;;2.35;;
42118;SDS011;27783;42.782;23.274;2023-02-22T14:37:20;5.32;;;3.85;;
42118;SDS011;27783;42.782;23.274;2023-02-22T14:39:59;5.18;;;3.40;;
42118;SDS011;27783;42.782;23.274;2023-02-22T14:42:44;5.38;;;3.63;;
42118;SDS011;27783;42.782;23.274;2023-02-22T14:45:18;6.20;;;4.28;;
42118;SDS011;27783;42.782;23.274;2023-02-22T14:47:57;4.03;;;3.40;;
42118;SDS011;27783;42.782;23.274;2023-02-22T14:55:39;3.63;;;3.33;;
42118;SDS011;27783;42.782;23.274;2023-02-22T14:58:21;5.85;;;4.82;;
42118;SDS011;27783;42.782;23.274;2023-02-22T15:00:50;10.43;;;4.45;;
42118;SDS011;27783;42.782;23.274;2023-02-22T15:03:23;5.82;;;4.75;;
42118;SDS011;27783;42.782;23.274;2023-02-22T15:05:51;5.63;;;5.10;;
42118;SDS011;27783;42.782;23.274;2023-02-22T15:08:17;6.85;;;6.15;;
42118;SDS011;27783;42.782;23.274;2023-02-22T15:10:51;8.07;;;5.25;;
42118;SDS011;27783;42.782;23.274;2023-02-22T15:15:53;5.97;;;5.47;;
42118;SDS011;27783;42.782;23.274;2023-02-22T15:18:29;10.75;;;7.82;;
42118;SDS011;27783;42.782;23.274;2023-02-22T15:21:11;12.30;;;11.18;;
42118;SDS011;27783;42.782;23.274;2023-02-22T15:23:48;12.90;;;11.35;;
42118;SDS011;27783;42.782;23.274;2023-02-22T15:28:42;11.35;;;10.45;;
42118;SDS011;27783;42.782;23.274;2023-02-22T15:31:13;20.25;;;18.35;;
42118;SDS011;27783;42.782;23.274;2023-02-22T15:33:47;17.98;;;16.33;;
42118;SDS011;27783;42.782;23.274;2023-02-22T15:36:18;16.83;;;15.10;;
42118;SDS011;27783;42.782;23.274;2023-02-22T15:38:47;13.48;;;11.38;;
42118;SDS011;27783;42.782;23.274;2023-02-22T15:41:23;39.10;;;32.63;;
42118;SDS011;27783;42.782;23.274;2023-02-22T15:46:42;62.05;;;54.30;;
42118;SDS011;27783;42.782;23.274;2023-02-22T15:51:41;35.35;;;31.73;;
42118;SDS011;27783;42.782;23.274;2023-02-22T15:54:11;31.40;;;28.30;;
42118;SDS011;27783;42.782;23.274;2023-02-22T15:56:47;22.05;;;19.85;;
42118;SDS011;27783;42.782;23.274;2023-02-22T15:59:20;16.00;;;14.70;;
42118;SDS011;27783;42.782;23.274;2023-02-22T16:01:55;16.20;;;13.70;;
42118;SDS011;27783;42.782;23.274;2023-02-22T16:04:31;18.83;;;16.92;;
42118;SDS011;27783;42.782;23.274;2023-02-22T16:07:06;26.45;;;17.92;;
42118;SDS011;27783;42.782;23.274;2023-02-22T16:09:45;26.48;;;20.45;;
42118;SDS011;27783;42.782;23.274;2023-02-22T16:12:23;36.15;;;23.83;;
42118;SDS011;27783;42.782;23.274;2023-02-22T16:14:51;40.58;;;26.98;;
42118;SDS011;27783;42.782;23.274;2023-02-22T16:19:58;22.57;;;19.97;;
42118;SDS011;27783;42.782;23.274;2023-02-22T16:27:45;83.72;;;51.95;;
42118;SDS011;27783;42.782;23.274;2023-02-22T16:30:28;72.90;;;44.10;;
42118;SDS011;27783;42.782;23.274;2023-02-22T16:32:58;70.75;;;44.38;;
42118;SDS011;27783;42.782;23.274;2023-02-22T16:35:29;101.20;;;55.65;;
42118;SDS011;27783;42.782;23.274;2023-02-22T16:40:24;71.93;;;37.30;;
42118;SDS011;27783;42.782;23.274;2023-02-22T16:43:02;44.47;;;29.42;;
42118;SDS011;27783;42.782;23.274;2023-02-22T16:45:31;44.38;;;29.10;;
42118;SDS011;27783;42.782;23.274;2023-02-22T16:47:58;30.80;;;19.02;;
42118;SDS011;27783;42.782;23.274;2023-02-22T16:50:24;38.25;;;19.35;;
42118;SDS011;27783;42.782;23.274;2023-02-22T16:52:51;19.27;;;11.45;;
42118;SDS011;27783;42.782;23.274;2023-02-22T16:55:20;13.32;;;11.88;;
42118;SDS011;27783;42.782;23.274;2023-02-22T16:57:46;17.73;;;12.03;;
42118;SDS011;27783;42.782;23.274;2023-02-22T17:00:19;22.50;;;16.15;;
42118;SDS011;27783;42.782;23.274;2023-02-22T17:03:00;26.23;;;15.38;;
42118;SDS011;27783;42.782;23.274;2023-02-22T17:05:28;26.30;;;16.95;;
42118;SDS011;27783;42.782;23.274;2023-02-22T17:08:00;33.75;;;18.30;;
42118;SDS011;27783;42.782;23.274;2023-02-22T17:10:26;26.67;;;20.15;;
42118;SDS011;27783;42.782;23.274;2023-02-22T17:12:53;30.38;;;19.88;;
42118;SDS011;27783;42.782;23.274;2023-02-22T17:15:27;30.13;;;19.38;;
42118;SDS011;27783;42.782;23.274;2023-02-22T17:17:58;20.23;;;18.02;;
42118;SDS011;27783;42.782;23.274;2023-02-22T17:20:24;37.35;;;28.30;;
42118;SDS011;27783;42.782;23.274;2023-02-22T17:23:00;36.90;;;23.38;;
42118;SDS011;27783;42.782;23.274;2023-02-22T17:25:29;32.72;;;20.95;;
42118;SDS011;27783;42.782;23.274;2023-02-22T17:27:57;29.90;;;20.45;;
42118;SDS011;27783;42.782;23.274;2023-02-22T17:30:23;31.20;;;20.90;;
42118;SDS011;27783;42.782;23.274;2023-02-22T17:32:50;34.70;;;25.85;;
42118;SDS011;27783;42.782;23.274;2023-02-22T17:35:18;70.28;;;62.10;;
42118;SDS011;27783;42.782;23.274;2023-02-22T17:37:48;111.00;;;85.60;;
42118;SDS011;27783;42.782;23.274;2023-02-22T17:40:14;148.95;;;93.72;;
42118;SDS011;27783;42.782;23.274;2023-02-22T17:42:43;119.20;;;75.50;;
42118;SDS011;27783;42.782;23.274;2023-02-22T17:45:11;54.70;;;35.70;;
42118;SDS011;27783;42.782;23.274;2023-02-22T17:47:41;47.75;;;31.02;;